createdAt,value
2023-02-27T00:00:32.900Z,2.05
2023-02-27T00:03:20.913Z,2.06
2023-02-27T00:05:49.007Z,2.04
2023-02-27T00:08:16.680Z,2.09
2023-02-27T00:10:44.409Z,2.15
2023-02-27T00:13:12.053Z,2.22
2023-02-27T00:15:41.067Z,2.30
2023-02-27T00:18:09.004Z,2.31
2023-02-27T00:20:38.262Z,2.31
2023-02-27T00:23:06.960Z,2.29
2023-02-27T00:25:35.351Z,2.31
2023-02-27T00:28:04.419Z,2.37
2023-02-27T00:30:32.763Z,2.41
2023-02-27T00:33:00.881Z,2.40
2023-02-27T00:35:28.680Z,2.36
2023-02-27T00:37:56.405Z,2.31
2023-02-27T00:40:26.714Z,2.24
2023-02-27T00:42:54.921Z,2.13
2023-02-27T00:45:22.706Z,2.03
2023-02-27T00:47:50.439Z,1.97
2023-02-27T00:50:18.346Z,1.93
2023-02-27T00:52:46.145Z,1.90
2023-02-27T00:55:14.091Z,1.88
2023-02-27T00:57:41.993Z,1.88
2023-02-27T01:00:11.023Z,1.88
2023-02-27T01:02:39.032Z,1.92
2023-02-27T01:05:09.232Z,1.99
2023-02-27T01:07:37.684Z,2.00
2023-02-27T01:10:06.845Z,1.99
2023-02-27T01:12:34.767Z,2.00
2023-02-27T01:15:03.578Z,2.03
2023-02-27T01:17:31.897Z,2.04
2023-02-27T01:19:59.573Z,2.07
2023-02-27T01:22:27.300Z,2.14
2023-02-27T01:24:55.146Z,2.22
2023-02-27T01:27:23.055Z,2.32
2023-02-27T01:29:50.826Z,2.38
2023-02-27T01:32:18.888Z,2.36
2023-02-27T01:34:46.617Z,2.34
2023-02-27T01:37:14.304Z,2.30
2023-02-27T01:39:43.873Z,2.29
2023-02-27T01:42:24.297Z,2.29
2023-02-27T01:45:20.627Z,2.27
2023-02-27T01:47:51.253Z,2.23
2023-02-27T01:50:19.640Z,2.19
2023-02-27T01:52:53.226Z,2.19
2023-02-27T01:55:21.770Z,2.16
2023-02-27T01:57:49.807Z,2.12
2023-02-27T02:00:18.484Z,2.05
2023-02-27T02:03:28.880Z,2.05
2023-02-27T02:05:58.676Z,2.12
2023-02-27T02:08:28.912Z,2.14
2023-02-27T02:10:58.317Z,2.10
2023-02-27T02:13:26.089Z,2.08
2023-02-27T02:16:00.770Z,2.05
2023-02-27T02:18:41.505Z,2.07
2023-02-27T02:21:31.082Z,2.12
2023-02-27T02:24:40.897Z,2.09
2023-02-27T02:27:19.082Z,2.06
2023-02-27T02:30:06.253Z,2.05
2023-02-27T02:32:37.295Z,1.99
2023-02-27T02:35:26.818Z,1.87
2023-02-27T02:38:06.618Z,1.81
2023-02-27T02:40:57.233Z,1.77
2023-02-27T02:43:30.620Z,1.74
2023-02-27T02:46:08.356Z,1.69
2023-02-27T02:48:49.122Z,1.64
2023-02-27T02:51:40.494Z,1.67
2023-02-27T02:54:08.190Z,1.67
2023-02-27T02:56:40.450Z,1.68
2023-02-27T02:59:19.871Z,1.67
2023-02-27T03:01:57.768Z,1.68
2023-02-27T03:04:34.862Z,1.71
2023-02-27T03:07:19.918Z,1.74
2023-02-27T03:09:58.693Z,1.71
2023-02-27T03:12:27.402Z,1.70
2023-02-27T03:15:20.057Z,1.70
2023-02-27T03:17:51.322Z,1.73
2023-02-27T03:20:31.383Z,1.73
2023-02-27T03:23:01.968Z,1.74
2023-02-27T03:25:30.495Z,1.76
2023-02-27T03:28:01.537Z,1.78
2023-02-27T03:30:45.175Z,1.85
2023-02-27T03:33:33.081Z,1.89
2023-02-27T03:36:49.374Z,1.94
2023-02-27T03:39:24.205Z,1.87
2023-02-27T03:42:09.127Z,1.89
2023-02-27T03:45:05.187Z,1.88
2023-02-27T03:47:33.513Z,1.87
2023-02-27T03:50:01.216Z,1.85
2023-02-27T03:52:30.200Z,1.84
2023-02-27T03:55:08.368Z,1.78
2023-02-27T03:57:42.223Z,1.77
2023-02-27T04:00:14.221Z,1.80
2023-02-27T04:02:44.932Z,1.81
2023-02-27T04:05:14.857Z,1.81
2023-02-27T04:08:10.491Z,1.82
2023-02-27T04:10:51.963Z,1.82
2023-02-27T04:14:05.617Z,1.84
2023-02-27T04:16:37.152Z,1.86
2023-02-27T04:19:10.836Z,1.85
2023-02-27T04:21:44.041Z,1.87
2023-02-27T04:24:51.684Z,1.92
2023-02-27T04:27:39.334Z,1.93
2023-02-27T04:30:29.034Z,1.92
2023-02-27T04:33:08.222Z,1.90
2023-02-27T04:35:52.717Z,1.90
2023-02-27T04:38:30.226Z,1.86
2023-02-27T04:41:03.321Z,1.83
2023-02-27T04:43:31.470Z,1.76
2023-02-27T04:46:00.969Z,1.71
2023-02-27T04:48:55.663Z,1.72
2023-02-27T04:51:27.463Z,1.77
2023-02-27T04:54:00.469Z,1.79
2023-02-27T04:56:33.828Z,1.79
2023-02-27T04:59:13.672Z,1.79
2023-02-27T05:01:44.479Z,1.78
2023-02-27T05:04:15.805Z,1.76
2023-02-27T05:06:44.751Z,1.77
2023-02-27T05:09:31.908Z,1.78
2023-02-27T05:12:04.164Z,1.81
2023-02-27T05:14:36.189Z,1.80
2023-02-27T05:17:15.328Z,1.80
2023-02-27T05:19:44.324Z,1.76
2023-02-27T05:22:12.424Z,1.67
2023-02-27T05:25:08.356Z,1.65
2023-02-27T05:27:49.764Z,1.74
2023-02-27T05:30:23.362Z,1.77
2023-02-27T05:32:57.983Z,1.72
2023-02-27T05:35:36.040Z,1.67
2023-02-27T05:38:12.784Z,1.63
2023-02-27T05:40:51.515Z,1.57
2023-02-27T05:43:23.306Z,1.55
2023-02-27T05:45:56.976Z,1.54
2023-02-27T05:48:28.171Z,1.51
2023-02-27T05:50:56.298Z,1.53
2023-02-27T05:53:27.326Z,1.55
2023-02-27T05:55:57.085Z,1.52
2023-02-27T05:58:35.615Z,1.52
2023-02-27T06:01:09.009Z,1.51
2023-02-27T06:03:38.070Z,1.49
2023-02-27T06:06:16.760Z,1.45
2023-02-27T06:08:45.402Z,1.47
2023-02-27T06:11:13.246Z,1.52
2023-02-27T06:13:42.220Z,1.58
2023-02-27T06:16:17.368Z,1.53
2023-02-27T06:18:45.076Z,1.52
2023-02-27T06:21:13.808Z,1.60
2023-02-27T06:23:41.763Z,1.67
2023-02-27T06:26:13.921Z,1.67
2023-02-27T06:28:42.534Z,1.62
2023-02-27T06:31:10.951Z,1.55
2023-02-27T06:33:38.859Z,1.56
2023-02-27T06:36:06.809Z,1.56
2023-02-27T06:38:34.698Z,1.62
2023-02-27T06:41:04.374Z,1.64
2023-02-27T06:43:34.743Z,1.70
2023-02-27T06:46:03.008Z,1.80
2023-02-27T06:48:30.765Z,1.82
2023-02-27T06:50:58.483Z,1.80
2023-02-27T06:53:26.250Z,1.79
2023-02-27T06:55:53.903Z,1.81
2023-02-27T06:58:21.697Z,1.81
2023-02-27T07:00:49.418Z,1.80
2023-02-27T07:03:17.144Z,1.82
2023-02-27T07:05:45.155Z,1.82
2023-02-27T07:08:12.877Z,1.82
2023-02-27T07:10:43.990Z,1.84
2023-02-27T07:13:11.672Z,1.87
2023-02-27T07:15:40.025Z,1.86
2023-02-27T07:18:07.756Z,1.83
2023-02-27T07:20:35.481Z,1.86
2023-02-27T07:23:03.651Z,1.98
2023-02-27T07:25:31.384Z,2.07
2023-02-27T07:27:59.210Z,2.20
2023-02-27T07:30:26.953Z,2.25
2023-02-27T07:32:54.642Z,2.26
2023-02-27T07:35:22.738Z,2.35
2023-02-27T07:37:50.513Z,2.42
2023-02-27T07:40:18.263Z,2.44
2023-02-27T07:42:48.581Z,2.51
2023-02-27T07:45:20.810Z,2.60
2023-02-27T07:47:48.638Z,2.65
2023-02-27T07:50:16.818Z,2.73
2023-02-27T07:52:44.551Z,2.81
2023-02-27T07:55:13.582Z,2.83
2023-02-27T07:57:41.389Z,2.83
2023-02-27T08:00:10.414Z,2.82
2023-02-27T08:02:41.015Z,2.77
2023-02-27T08:05:09.065Z,2.69
2023-02-27T08:07:36.755Z,2.73
2023-02-27T08:10:05.439Z,2.73
2023-02-27T08:12:33.239Z,2.71
2023-02-27T08:15:01.132Z,2.75
2023-02-27T08:17:28.893Z,2.82
2023-02-27T08:19:56.749Z,2.95
2023-02-27T08:22:24.413Z,3.01
2023-02-27T08:24:52.104Z,3.05
2023-02-27T08:27:19.849Z,3.06
2023-02-27T08:29:47.589Z,3.07
2023-02-27T08:32:15.415Z,3.01
2023-02-27T08:34:43.218Z,2.97
2023-02-27T08:37:10.838Z,3.02
2023-02-27T08:39:38.532Z,3.12
2023-02-27T08:42:07.332Z,3.25
2023-02-27T08:44:35.194Z,3.36
2023-02-27T08:47:03.186Z,3.56
2023-02-27T08:49:30.829Z,3.81
2023-02-27T08:51:59.031Z,4.01
2023-02-27T08:54:27.170Z,4.15
2023-02-27T08:56:55.042Z,4.28
2023-02-27T08:59:22.799Z,4.45
2023-02-27T14:02:57.880Z,3.72
2023-02-27T14:05:47.828Z,3.70
2023-02-27T14:08:27.153Z,3.73
2023-02-27T14:11:09.991Z,3.82
2023-02-27T14:13:57.671Z,3.88
2023-02-27T14:16:40.850Z,3.95
2023-02-27T14:19:11.999Z,3.97
2023-02-27T14:21:56.052Z,3.99
2023-02-27T14:24:33.344Z,4.02
2023-02-27T14:27:03.177Z,4.06
2023-02-27T14:29:33.614Z,4.03
2023-02-27T14:32:07.892Z,3.93
2023-02-27T14:34:36.593Z,3.87
2023-02-27T14:37:07.156Z,3.89
2023-02-27T14:39:36.796Z,3.97
2023-02-27T14:42:20.318Z,4.06
2023-02-27T14:44:48.933Z,4.12
2023-02-27T14:47:24.582Z,4.12
2023-02-27T14:49:52.866Z,4.09
2023-02-27T14:52:23.868Z,4.08
2023-02-27T14:54:53.428Z,4.13
2023-02-27T14:57:24.217Z,4.14
2023-02-27T14:59:53.879Z,4.13
2023-02-27T15:02:24.914Z,4.13
2023-02-27T15:04:56.630Z,4.08
2023-02-27T15:07:26.816Z,4.08
2023-02-27T15:09:57.492Z,4.16
2023-02-27T15:12:26.769Z,4.20
2023-02-27T15:14:59.910Z,4.21
2023-02-27T15:17:39.359Z,4.26
2023-02-27T15:20:30.172Z,4.24
2023-02-27T15:22:59.614Z,4.17
2023-02-27T15:25:39.699Z,4.13
2023-02-27T15:28:27.712Z,4.07
2023-02-27T15:30:56.596Z,4.02
2023-02-27T15:33:32.520Z,3.99
2023-02-27T15:36:00.831Z,3.92
2023-02-27T15:38:32.642Z,3.87
2023-02-27T15:41:02.564Z,3.78
2023-02-27T15:43:30.739Z,3.74
2023-02-27T15:45:58.572Z,3.68
2023-02-27T15:48:26.571Z,3.59
2023-02-27T15:50:58.022Z,3.55
2023-02-27T15:53:28.311Z,3.55
2023-02-27T15:56:01.728Z,3.54
2023-02-27T15:58:33.244Z,3.52
2023-02-27T16:01:21.115Z,3.53
2023-02-27T16:03:51.451Z,3.51
2023-02-27T16:06:28.765Z,3.53
2023-02-27T16:09:00.487Z,3.54
2023-02-27T16:11:31.373Z,3.50
2023-02-27T16:13:59.486Z,3.48
2023-02-27T16:16:36.105Z,3.43
2023-02-27T16:19:27.586Z,3.43
2023-02-27T16:22:15.237Z,3.43
2023-02-27T16:24:44.385Z,3.47
2023-02-27T16:27:29.479Z,3.48
2023-02-27T16:30:02.432Z,3.50
2023-02-27T16:32:35.482Z,3.50
2023-02-27T16:35:08.724Z,3.46
2023-02-27T16:37:39.312Z,3.40
2023-02-27T16:40:24.360Z,3.34
2023-02-27T16:42:52.666Z,3.36
2023-02-27T16:45:26.517Z,3.37
2023-02-27T16:47:56.850Z,3.36
2023-02-27T16:50:28.798Z,3.34
2023-02-27T16:52:57.474Z,3.37
2023-02-27T16:55:25.612Z,3.41
2023-02-27T16:57:53.466Z,3.44
2023-02-27T17:00:22.862Z,3.44
2023-02-27T17:02:51.244Z,3.47
2023-02-27T17:05:19.148Z,3.52
2023-02-27T17:07:47.242Z,3.55
2023-02-27T17:10:17.797Z,3.54
2023-02-27T17:12:48.305Z,3.48
2023-02-27T17:15:16.482Z,3.42
2023-02-27T17:17:45.044Z,3.42
2023-02-27T17:20:15.243Z,3.39
2023-02-27T17:22:44.980Z,3.39
2023-02-27T17:25:13.478Z,3.42
2023-02-27T17:27:44.896Z,3.45
2023-02-27T17:30:14.483Z,3.44
2023-02-27T17:32:42.666Z,3.40
2023-02-27T17:35:10.839Z,3.44
2023-02-27T17:37:38.819Z,3.45
2023-02-27T17:40:08.292Z,3.40
2023-02-27T17:42:36.847Z,3.40
2023-02-27T17:45:06.459Z,3.37
2023-02-27T17:47:35.090Z,3.37
2023-02-27T17:50:04.920Z,3.33
2023-02-27T17:52:35.885Z,3.25
2023-02-27T17:55:04.276Z,3.24
2023-02-27T17:57:35.711Z,3.24
2023-02-27T18:00:06.012Z,3.27
2023-02-27T18:02:34.054Z,3.31
2023-02-27T18:05:04.642Z,3.32
2023-02-27T18:07:32.823Z,3.27
2023-02-27T18:10:00.560Z,3.16
2023-02-27T18:12:28.356Z,3.06
2023-02-27T18:14:56.538Z,3.01
2023-02-27T18:17:24.323Z,3.02
2023-02-27T18:19:52.063Z,2.99
2023-02-27T18:22:21.821Z,2.96
2023-02-27T18:24:53.364Z,2.93
2023-02-27T18:27:24.864Z,2.91
2023-02-27T18:29:52.717Z,2.91
2023-02-27T18:32:21.020Z,2.89
2023-02-27T18:34:49.127Z,2.89
2023-02-27T18:37:16.834Z,2.86
2023-02-27T18:39:44.620Z,2.81
2023-02-27T18:42:12.309Z,2.83
2023-02-27T18:44:41.389Z,2.83
2023-02-27T18:47:09.812Z,2.81
2023-02-27T18:49:38.006Z,2.77
2023-02-27T18:52:05.903Z,2.73
2023-02-27T18:54:33.748Z,2.72
2023-02-27T18:57:01.660Z,2.69
2023-02-27T18:59:29.424Z,2.68
2023-02-27T19:01:58.083Z,2.63
2023-02-27T19:04:26.077Z,2.59
2023-02-27T19:06:53.936Z,2.54
2023-02-27T19:09:22.347Z,2.47
2023-02-27T19:11:50.429Z,2.45
2023-02-27T19:14:18.423Z,2.45
2023-02-27T19:16:46.363Z,2.45
2023-02-27T19:19:15.289Z,2.42
2023-02-27T19:21:43.723Z,2.38
2023-02-27T19:24:12.830Z,2.35
2023-02-27T19:26:40.944Z,2.34
2023-02-27T19:29:08.824Z,2.31
2023-02-27T19:31:36.994Z,2.25
2023-02-27T19:34:05.373Z,2.22
2023-02-27T19:36:34.597Z,2.17
2023-02-27T19:39:03.762Z,2.10
2023-02-27T19:41:33.405Z,2.00
2023-02-27T19:44:01.581Z,1.95
2023-02-27T19:46:32.359Z,1.95
2023-02-27T19:49:05.534Z,1.97
2023-02-27T19:51:33.930Z,1.98
2023-02-27T19:54:01.774Z,1.97
2023-02-27T19:56:30.694Z,1.96
2023-02-27T19:59:00.977Z,1.95
2023-02-27T20:01:34.423Z,1.92
2023-02-27T20:04:03.456Z,1.88
2023-02-27T20:06:33.690Z,1.86
2023-02-27T20:09:01.595Z,1.78
2023-02-27T20:11:31.025Z,1.73
2023-02-27T20:13:59.220Z,1.68
2023-02-27T20:16:29.832Z,1.67
2023-02-27T20:18:57.977Z,1.68
2023-02-27T20:21:28.638Z,1.70
2023-02-27T20:23:58.309Z,1.73
2023-02-27T20:26:34.966Z,1.74
2023-02-27T20:29:07.069Z,1.75
2023-02-27T20:31:36.295Z,1.80
2023-02-27T20:34:06.232Z,1.83
2023-02-27T20:36:35.374Z,1.85
2023-02-27T20:39:04.536Z,1.88
2023-02-27T20:41:34.579Z,1.92
2023-02-27T20:44:04.390Z,1.93
2023-02-27T20:46:32.673Z,1.93
2023-02-27T20:49:02.495Z,1.94
2023-02-27T20:51:42.131Z,2.00
2023-02-27T20:54:13.609Z,2.03
2023-02-27T20:56:43.201Z,2.08
2023-02-27T20:59:18.938Z,2.14
2023-02-27T21:01:51.589Z,2.17
2023-02-27T21:04:20.065Z,2.15
2023-02-27T21:06:48.442Z,2.17
2023-02-27T21:09:16.782Z,2.20
2023-02-27T21:11:44.892Z,2.24
2023-02-27T21:14:12.727Z,2.22
2023-02-27T21:16:40.706Z,2.21
2023-02-27T21:19:08.713Z,2.17
2023-02-27T21:21:37.170Z,2.16
2023-02-27T21:24:06.462Z,2.19
2023-02-27T21:26:40.286Z,2.20
2023-02-27T21:29:13.801Z,2.24
2023-02-27T21:31:45.219Z,2.27
2023-02-27T21:34:15.778Z,2.24
2023-02-27T21:36:45.259Z,2.20
2023-02-27T21:39:16.136Z,2.20
2023-02-27T21:41:44.582Z,2.22
2023-02-27T21:44:15.065Z,2.29
2023-02-27T21:46:43.410Z,2.30
2023-02-27T21:49:17.525Z,2.29
2023-02-27T21:51:46.724Z,2.33
2023-02-27T21:54:15.483Z,2.39
2023-02-27T21:56:45.638Z,2.43
2023-02-27T21:59:14.671Z,2.43
2023-02-27T22:01:47.357Z,2.46
2023-02-27T22:04:17.094Z,2.49
2023-02-27T22:06:45.443Z,2.52
2023-02-27T22:09:13.759Z,2.48
2023-02-27T22:11:41.856Z,2.41
2023-02-27T22:14:10.699Z,2.34
2023-02-27T22:16:38.921Z,2.37
2023-02-27T22:19:08.631Z,2.35
2023-02-27T22:21:37.694Z,2.32
2023-02-27T22:24:06.837Z,2.33
2023-02-27T22:26:35.105Z,2.32
2023-02-27T22:29:04.701Z,2.27
2023-02-27T22:31:35.238Z,2.30
2023-02-27T22:34:18.606Z,2.36
2023-02-27T22:36:52.669Z,2.40
2023-02-27T22:39:21.508Z,2.36
2023-02-27T22:41:49.527Z,2.30
2023-02-27T22:44:17.290Z,2.29
2023-02-27T22:46:47.998Z,2.32
2023-02-27T22:49:21.399Z,2.40
2023-02-27T22:51:51.189Z,2.47
2023-02-27T22:54:21.910Z,2.48
2023-02-27T22:56:51.515Z,2.49
2023-02-27T22:59:19.872Z,2.55
2023-02-27T23:01:48.779Z,2.60
2023-02-27T23:04:20.852Z,2.62
2023-02-27T23:06:49.544Z,2.62
2023-02-27T23:09:20.600Z,2.61
2023-02-27T23:11:48.553Z,2.56
2023-02-27T23:14:17.239Z,2.54
2023-02-27T23:16:45.897Z,2.55
2023-02-27T23:19:16.052Z,2.52
2023-02-27T23:21:43.833Z,2.45
2023-02-27T23:24:14.346Z,2.46
2023-02-27T23:26:44.867Z,2.46
2023-02-27T23:29:12.974Z,2.48
2023-02-27T23:31:42.307Z,2.51
2023-02-27T23:34:10.549Z,2.54
2023-02-27T23:36:38.702Z,2.57
2023-02-27T23:39:07.146Z,2.57
2023-02-27T23:41:34.832Z,2.58
2023-02-27T23:44:21.547Z,2.61
2023-02-27T23:46:49.756Z,2.52
2023-02-27T23:49:17.395Z,2.45
2023-02-27T23:51:45.169Z,2.41
2023-02-27T23:54:12.981Z,2.45
2023-02-27T23:56:40.653Z,2.53
2023-02-27T23:59:08.369Z,2.60
